createdAt,value
2022-11-12T00:00:59.189Z,95463.09
2022-11-12T00:03:26.738Z,95459.97
2022-11-12T00:05:53.728Z,95454.09
2022-11-12T00:08:21.035Z,95452.75
2022-11-12T00:10:47.687Z,95437.84
2022-11-12T00:13:14.878Z,95435.78
2022-11-12T00:15:41.966Z,95438.25
2022-11-12T00:18:08.880Z,95431.81
2022-11-12T00:20:41.940Z,95425.88
2022-11-12T00:23:08.699Z,95442.16
2022-11-12T00:25:45.148Z,95444.41
2022-11-12T00:28:12.005Z,95437.84
2022-11-12T00:30:39.978Z,95444.13
2022-11-12T00:33:07.197Z,95450.50
2022-11-12T00:35:34.832Z,95454.63
2022-11-12T00:38:02.129Z,95456.59
2022-11-12T00:40:29.629Z,95456.47
2022-11-12T00:42:56.608Z,95457.44
2022-11-12T00:45:23.801Z,95453.50
2022-11-12T00:47:50.480Z,95452.88
2022-11-12T00:50:17.381Z,95450.97
2022-11-12T00:52:44.288Z,95455.88
2022-11-12T00:55:11.451Z,95445.09
2022-11-12T00:57:38.264Z,95443.38
2022-11-12T01:00:08.235Z,95443.53
2022-11-12T01:02:41.636Z,95432.59
2022-11-12T01:05:10.476Z,95422.31
2022-11-12T01:07:37.091Z,95416.56
2022-11-12T01:10:04.171Z,95412.53
2022-11-12T01:12:31.674Z,95429.44
2022-11-12T01:14:58.405Z,95422.75
2022-11-12T01:17:24.990Z,95425.53
2022-11-12T01:19:51.625Z,95417.22
2022-11-12T01:22:18.199Z,95417.41
2022-11-12T01:24:44.953Z,95422.06
2022-11-12T01:27:11.527Z,95438.00
2022-11-12T01:29:38.100Z,95424.13
2022-11-12T01:32:04.915Z,95428.00
2022-11-12T01:34:31.562Z,95419.16
2022-11-12T01:36:58.513Z,95421.84
2022-11-12T01:39:25.313Z,95413.72
2022-11-12T01:41:52.151Z,95413.28
2022-11-12T01:44:25.210Z,95413.53
2022-11-12T01:46:55.878Z,95393.69
2022-11-12T01:49:32.686Z,95411.34
2022-11-12T01:52:10.737Z,95411.19
2022-11-12T01:54:38.496Z,95401.94
2022-11-12T01:57:05.773Z,95404.41
2022-11-12T01:59:38.590Z,95400.88
2022-11-12T02:02:05.580Z,95407.88
2022-11-12T02:04:33.596Z,95396.81
2022-11-12T02:07:00.666Z,95401.88
2022-11-12T02:09:27.638Z,95396.50
2022-11-12T02:11:54.395Z,95404.38
2022-11-12T02:14:21.497Z,95396.38
2022-11-12T02:16:49.290Z,95394.38
2022-11-12T02:19:17.344Z,95397.22
2022-11-12T02:21:44.703Z,95396.25
2022-11-12T02:24:14.411Z,95400.47
2022-11-12T02:26:45.657Z,95405.31
2022-11-12T02:29:12.589Z,95398.47
2022-11-12T02:31:39.280Z,95402.97
2022-11-12T02:34:05.906Z,95401.03
2022-11-12T02:36:32.498Z,95394.91
2022-11-12T02:38:59.159Z,95396.53
2022-11-12T02:41:26.166Z,95398.38
2022-11-12T02:43:52.752Z,95390.47
2022-11-12T02:46:19.639Z,95391.78
2022-11-12T02:48:46.788Z,95396.63
2022-11-12T02:51:13.698Z,95393.22
2022-11-12T02:53:40.337Z,95389.75
2022-11-12T02:56:07.284Z,95394.78
2022-11-12T02:58:33.862Z,95399.16
2022-11-12T03:01:00.707Z,95399.72
2022-11-12T03:03:27.341Z,95393.00
2022-11-12T03:06:02.792Z,95390.31
2022-11-12T03:08:29.576Z,95391.19
2022-11-12T03:10:56.354Z,95379.66
2022-11-12T03:13:23.008Z,95374.81
2022-11-12T03:15:49.633Z,95383.25
2022-11-12T03:18:16.416Z,95384.50
2022-11-12T03:20:43.037Z,95383.63
2022-11-12T03:23:11.152Z,95386.16
2022-11-12T03:25:37.963Z,95392.09
2022-11-12T03:28:10.177Z,95402.16
2022-11-12T03:30:39.181Z,95398.69
2022-11-12T03:33:07.055Z,95407.69
2022-11-12T03:35:34.629Z,95404.06
2022-11-12T03:38:02.244Z,95407.19
2022-11-12T03:40:30.396Z,95404.84
2022-11-12T03:42:57.127Z,95399.97
2022-11-12T03:45:25.899Z,95406.06
2022-11-12T03:47:55.466Z,95396.09
2022-11-12T03:50:25.458Z,95395.34
2022-11-12T03:52:54.252Z,95392.31
2022-11-12T03:55:22.996Z,95396.97
2022-11-12T03:57:51.295Z,95405.34
2022-11-12T04:00:19.163Z,95407.63
2022-11-12T04:02:45.852Z,95407.13
2022-11-12T04:05:31.602Z,95399.41
2022-11-12T04:08:17.500Z,95398.97
2022-11-12T04:10:44.237Z,95397.16
2022-11-12T04:13:29.001Z,95397.09
2022-11-12T04:16:20.011Z,95398.34
2022-11-12T04:19:07.882Z,95398.25
2022-11-12T04:21:56.276Z,95387.50
2022-11-12T04:24:58.101Z,95385.44
2022-11-12T04:27:33.301Z,95384.31
2022-11-12T04:30:19.072Z,95382.91
2022-11-12T04:32:47.607Z,95378.66
2022-11-12T04:35:14.404Z,95384.78
2022-11-12T04:37:47.113Z,95384.63
2022-11-12T04:40:40.293Z,95386.56
2022-11-12T04:43:28.596Z,95387.34
2022-11-12T04:45:56.072Z,95382.63
2022-11-12T04:48:24.600Z,95383.88
2022-11-12T04:50:57.909Z,95384.63
2022-11-12T04:53:25.118Z,95387.34
2022-11-12T04:55:52.592Z,95395.56
2022-11-12T04:58:19.719Z,95395.56
2022-11-12T05:00:46.712Z,95403.59
2022-11-12T05:03:13.391Z,95401.22
2022-11-12T05:05:40.287Z,95400.72
2022-11-12T05:08:06.985Z,95400.56
2022-11-12T05:10:33.619Z,95407.69
2022-11-12T05:13:00.648Z,95411.94
2022-11-12T05:15:27.240Z,95402.44
2022-11-12T05:17:53.921Z,95411.78
2022-11-12T05:20:20.701Z,95418.69
2022-11-12T05:23:04.399Z,95422.88
2022-11-12T05:25:32.589Z,95419.16
2022-11-12T05:27:59.353Z,95429.59
2022-11-12T05:30:26.042Z,95428.09
2022-11-12T05:32:52.702Z,95425.22
2022-11-12T05:35:19.311Z,95425.50
2022-11-12T05:37:45.958Z,95428.38
2022-11-12T05:40:13.189Z,95422.47
2022-11-12T05:42:39.771Z,95431.00
2022-11-12T05:45:07.260Z,95420.28
2022-11-12T05:47:33.933Z,95427.03
2022-11-12T05:50:00.538Z,95423.72
2022-11-12T05:52:27.109Z,95429.72
2022-11-12T05:54:53.715Z,95425.00
2022-11-12T05:57:20.385Z,95431.91
2022-11-12T05:59:46.951Z,95432.22
2022-11-12T06:02:13.661Z,95433.66
2022-11-12T06:04:40.388Z,95445.91
2022-11-12T06:07:07.114Z,95441.34
2022-11-12T06:09:33.794Z,95444.50
2022-11-12T06:12:00.464Z,95444.47
2022-11-12T06:14:27.128Z,95436.16
2022-11-12T06:16:53.693Z,95440.72
2022-11-12T06:19:20.256Z,95444.56
2022-11-12T06:21:46.879Z,95447.00
2022-11-12T06:24:13.766Z,95450.81
2022-11-12T06:26:40.404Z,95446.56
2022-11-12T06:29:07.103Z,95447.00
2022-11-12T06:31:33.727Z,95448.69
2022-11-12T06:34:00.347Z,95447.25
2022-11-12T06:36:27.010Z,95443.53
2022-11-12T06:38:53.649Z,95440.75
2022-11-12T06:41:20.389Z,95444.78
2022-11-12T06:43:47.232Z,95444.16
2022-11-12T06:46:15.909Z,95450.94
2022-11-12T06:48:42.657Z,95454.38
2022-11-12T06:51:20.226Z,95459.75
2022-11-12T06:53:47.547Z,95458.44
2022-11-12T06:56:14.279Z,95467.78
2022-11-12T06:58:40.919Z,95456.25
2022-11-12T07:01:15.797Z,95459.88
2022-11-12T07:03:44.165Z,95458.13
2022-11-12T07:06:20.454Z,95457.72
2022-11-12T07:08:49.179Z,95456.91
2022-11-12T07:11:17.671Z,95455.31
2022-11-12T07:13:45.396Z,95451.50
2022-11-12T07:16:22.730Z,95449.84
2022-11-12T07:18:50.291Z,95458.81
2022-11-12T07:21:20.858Z,95450.16
2022-11-12T07:23:48.070Z,95456.72
2022-11-12T07:26:21.078Z,95437.38
2022-11-12T07:28:50.393Z,95441.66
2022-11-12T07:31:18.408Z,95440.50
2022-11-12T07:33:45.522Z,95450.69
2022-11-12T07:36:15.169Z,95446.81
2022-11-12T07:38:43.107Z,95449.03
2022-11-12T07:41:21.466Z,95448.91
2022-11-12T07:43:50.051Z,95446.34
2022-11-12T07:46:27.918Z,95438.94
2022-11-12T07:48:55.426Z,95447.31
2022-11-12T07:51:26.935Z,95446.34
2022-11-12T07:53:59.349Z,95455.19
2022-11-12T07:56:27.920Z,95453.47
2022-11-12T07:58:54.536Z,95448.75
2022-11-12T08:01:28.461Z,95447.31
2022-11-12T08:03:55.120Z,95451.94
2022-11-12T08:06:21.939Z,95456.94
2022-11-12T08:08:51.314Z,95448.75
2022-11-12T08:11:17.866Z,95452.75
2022-11-12T08:13:44.489Z,95457.41
2022-11-12T08:16:11.085Z,95461.91
2022-11-12T08:18:37.841Z,95457.84
2022-11-12T08:21:06.884Z,95464.56
2022-11-12T08:23:33.965Z,95461.16
2022-11-12T08:26:02.212Z,95458.13
2022-11-12T08:28:30.587Z,95464.63
2022-11-12T08:30:58.550Z,95464.16
2022-11-12T08:33:25.137Z,95456.84
2022-11-12T08:35:51.697Z,95467.09
2022-11-12T08:38:18.311Z,95467.47
2022-11-12T08:40:44.908Z,95473.19
2022-11-12T08:43:11.494Z,95469.81
2022-11-12T08:45:41.183Z,95469.00
2022-11-12T08:48:12.552Z,95470.91
2022-11-12T08:50:39.517Z,95472.66
2022-11-12T08:53:09.563Z,95476.88
2022-11-12T08:55:36.946Z,95478.78
2022-11-12T08:58:04.686Z,95473.75
2022-11-12T09:00:39.790Z,95472.72
2022-11-12T09:03:08.137Z,95468.03
2022-11-12T09:05:35.981Z,95474.47
2022-11-12T09:08:14.273Z,95473.34
2022-11-12T09:10:40.934Z,95468.53
2022-11-12T09:13:07.627Z,95462.13
2022-11-12T09:15:38.622Z,95455.28
2022-11-12T09:18:07.901Z,95464.72
2022-11-12T09:20:34.521Z,95454.81
2022-11-12T09:23:03.654Z,95465.19
2022-11-12T09:25:30.638Z,95454.38
2022-11-12T09:27:57.336Z,95464.50
2022-11-12T09:30:24.012Z,95460.66
2022-11-12T09:32:50.702Z,95468.56
2022-11-12T09:35:17.329Z,95463.94
2022-11-12T09:37:44.137Z,95460.81
2022-11-12T09:40:18.053Z,95461.13
2022-11-12T09:42:50.196Z,95460.72
2022-11-12T09:45:50.356Z,95461.44
2022-11-12T09:48:32.709Z,95464.34
2022-11-12T09:51:05.300Z,95466.81
2022-11-12T09:53:44.081Z,95477.06
2022-11-12T09:56:13.845Z,95462.53
2022-11-12T09:58:40.469Z,95471.41
2022-11-12T10:01:24.697Z,95471.97
2022-11-12T10:04:14.954Z,95465.78
2022-11-12T10:07:06.182Z,95457.16
2022-11-12T10:10:09.008Z,95457.56
2022-11-12T10:12:38.479Z,95453.66
2022-11-12T10:15:51.665Z,95462.25
2022-11-12T10:18:36.219Z,95465.25
2022-11-12T10:21:29.779Z,95465.03
2022-11-12T10:23:57.215Z,95471.53
2022-11-12T10:26:26.142Z,95460.41
2022-11-12T10:29:36.329Z,95457.50
2022-11-12T10:32:03.665Z,95460.81
2022-11-12T10:34:34.160Z,95461.84
2022-11-12T10:37:05.772Z,95463.84
2022-11-12T10:39:41.424Z,95467.00
2022-11-12T10:42:11.076Z,95462.88
2022-11-12T10:44:39.311Z,95464.97
2022-11-12T10:47:30.318Z,95467.25
2022-11-12T10:50:30.354Z,95461.47
2022-11-12T10:53:03.687Z,95467.59
2022-11-12T10:55:31.765Z,95454.22
2022-11-12T10:58:20.616Z,95461.63
2022-11-12T11:00:56.840Z,95466.19
2022-11-12T11:03:36.202Z,95470.00
2022-11-12T11:06:17.875Z,95468.28
2022-11-12T11:08:47.560Z,95472.31
2022-11-12T11:11:16.923Z,95463.97
2022-11-12T11:13:52.767Z,95471.16
2022-11-12T11:16:27.847Z,95464.31
2022-11-12T11:19:05.288Z,95457.53
2022-11-12T11:21:55.059Z,95459.28
2022-11-12T11:24:24.578Z,95457.81
2022-11-12T11:27:00.703Z,95455.53
2022-11-12T11:29:33.272Z,95451.31
2022-11-12T11:32:09.666Z,95446.19
2022-11-12T11:34:46.462Z,95460.03
2022-11-12T11:37:26.151Z,95463.19
2022-11-12T11:40:14.647Z,95457.97
2022-11-12T11:42:58.249Z,95466.66
2022-11-12T11:45:53.693Z,95462.22
2022-11-12T11:48:43.566Z,95463.34
2022-11-12T11:51:15.529Z,95464.94
2022-11-12T11:53:45.117Z,95458.94
2022-11-12T11:56:19.938Z,95461.97
2022-11-12T11:59:43.778Z,95455.81
2022-11-12T12:02:12.975Z,95457.88
2022-11-12T12:05:09.322Z,95459.97
2022-11-12T12:08:20.691Z,95467.91
2022-11-12T12:11:09.303Z,95465.72
2022-11-12T12:13:48.005Z,95460.41
2022-11-12T12:16:31.137Z,95453.88
2022-11-12T12:19:25.203Z,95446.59
2022-11-12T12:21:53.048Z,95443.75
2022-11-12T12:24:40.196Z,95439.41
2022-11-12T12:27:14.702Z,95428.41
2022-11-12T12:29:49.297Z,95436.16
2022-11-12T12:32:23.944Z,95429.97
2022-11-12T12:35:13.336Z,95431.22
2022-11-12T12:37:45.624Z,95435.66
2022-11-12T12:40:25.219Z,95442.69
2022-11-12T12:43:01.910Z,95451.72
2022-11-12T12:45:36.108Z,95436.28
2022-11-12T12:48:07.289Z,95443.13
2022-11-12T12:50:50.001Z,95443.38
2022-11-12T12:53:22.852Z,95445.41
2022-11-12T12:55:51.777Z,95446.97
2022-11-12T12:58:29.063Z,95447.47
2022-11-12T13:01:00.992Z,95447.50
2022-11-12T13:03:42.709Z,95442.16
2022-11-12T13:06:27.990Z,95444.63
2022-11-12T13:09:20.656Z,95445.38
2022-11-12T13:12:06.556Z,95435.28
2022-11-12T13:14:35.929Z,95446.56
2022-11-12T13:17:08.485Z,95451.41
2022-11-12T13:19:37.099Z,95440.78
2022-11-12T13:22:19.046Z,95455.84
2022-11-12T13:25:05.725Z,95454.25
2022-11-12T13:27:44.375Z,95455.34
2022-11-12T13:30:13.970Z,95455.16
2022-11-12T13:32:46.509Z,95458.59
2022-11-12T13:35:31.198Z,95458.31
2022-11-12T13:38:03.522Z,95471.22
2022-11-12T13:40:30.081Z,95462.22
2022-11-12T13:43:40.506Z,95459.59
2022-11-12T13:46:07.236Z,95462.72
2022-11-12T13:48:42.795Z,95456.91
2022-11-12T13:51:34.070Z,95468.56
2022-11-12T13:54:01.450Z,95457.56
2022-11-12T13:56:33.704Z,95456.78
2022-11-12T13:59:24.046Z,95450.88
2022-11-12T14:01:50.935Z,95456.91
2022-11-12T14:04:21.100Z,95451.38
2022-11-12T14:06:50.453Z,95459.75
2022-11-12T14:09:25.879Z,95453.75
2022-11-12T14:12:00.292Z,95462.41
2022-11-12T14:14:37.620Z,95452.97
2022-11-12T14:17:29.107Z,95458.19
2022-11-12T14:19:55.726Z,95456.59
2022-11-12T14:22:23.003Z,95467.19
2022-11-12T14:24:58.917Z,95460.41
2022-11-12T14:27:28.533Z,95455.03
2022-11-12T14:30:10.153Z,95450.75
2022-11-12T14:32:39.501Z,95456.41
2022-11-12T14:35:25.504Z,95444.31
2022-11-12T14:37:55.965Z,95452.78
2022-11-12T14:40:24.765Z,95458.66
2022-11-12T14:42:52.310Z,95456.75
2022-11-12T14:45:21.752Z,95452.84
2022-11-12T14:47:51.112Z,95461.63
2022-11-12T14:50:37.504Z,95453.63
2022-11-12T14:53:44.867Z,95452.50
2022-11-12T14:56:23.656Z,95439.91
2022-11-12T14:58:52.503Z,95444.47
2022-11-12T15:02:08.509Z,95444.78
2022-11-12T15:04:15.731Z,95448.72
2022-11-12T15:06:42.396Z,95449.06
2022-11-12T15:09:09.046Z,95454.38
2022-11-12T15:11:44.877Z,95445.75
2022-11-12T15:14:24.792Z,95455.31
2022-11-12T15:16:53.394Z,95450.94
2022-11-12T15:19:27.973Z,95453.13
2022-11-12T15:21:57.799Z,95445.25
2022-11-12T15:24:29.475Z,95441.41
2022-11-12T15:26:58.002Z,95442.75
2022-11-12T15:29:31.945Z,95442.44
2022-11-12T15:32:00.124Z,95437.59
2022-11-12T15:34:34.309Z,95445.84
2022-11-12T15:37:05.837Z,95443.53
2022-11-12T15:39:39.038Z,95447.16
2022-11-12T15:42:25.952Z,95454.22
2022-11-12T15:44:58.574Z,95454.06
2022-11-12T15:47:25.297Z,95451.78
2022-11-12T15:49:54.335Z,95445.38
2022-11-12T15:52:22.007Z,95445.34
2022-11-12T15:54:49.077Z,95449.41
2022-11-12T15:57:29.924Z,95453.47
2022-11-12T16:00:10.150Z,95464.25
2022-11-12T16:02:36.785Z,95455.78
2022-11-12T16:05:03.437Z,95466.25
2022-11-12T16:07:30.145Z,95465.72
2022-11-12T16:09:56.775Z,95464.41
2022-11-12T16:12:23.423Z,95464.97
2022-11-12T16:14:50.047Z,95459.97
2022-11-12T16:17:18.088Z,95467.97
2022-11-12T16:19:44.676Z,95468.44
2022-11-12T16:22:14.467Z,95468.56
2022-11-12T16:24:42.379Z,95464.03
2022-11-12T16:27:15.545Z,95475.25
2022-11-12T16:29:42.109Z,95474.75
2022-11-12T16:32:13.653Z,95472.34
2022-11-12T16:34:40.242Z,95468.38
2022-11-12T16:37:12.635Z,95457.94
2022-11-12T16:39:39.680Z,95459.44
2022-11-12T16:42:06.411Z,95452.78
2022-11-12T16:44:33.027Z,95456.03
2022-11-12T16:47:03.356Z,95459.09
2022-11-12T16:49:33.295Z,95451.81
2022-11-12T16:52:04.069Z,95449.34
2022-11-12T16:54:30.845Z,95453.44
2022-11-12T16:56:57.508Z,95446.06
2022-11-12T16:59:24.216Z,95442.63
2022-11-12T17:01:50.857Z,95433.72
2022-11-12T17:04:17.511Z,95434.72
2022-11-12T17:06:44.101Z,95439.28
2022-11-12T17:09:12.331Z,95437.72
2022-11-12T17:11:39.100Z,95444.47
2022-11-12T17:14:06.302Z,95443.84
2022-11-12T17:16:33.445Z,95439.91
2022-11-12T17:19:02.194Z,95443.84
2022-11-12T17:21:29.576Z,95456.91
2022-11-12T17:23:59.428Z,95446.22
2022-11-12T17:26:26.056Z,95446.53
2022-11-12T17:28:59.214Z,95453.09
2022-11-12T17:31:27.933Z,95450.31
2022-11-12T17:33:54.623Z,95453.94
2022-11-12T17:36:27.034Z,95451.72
2022-11-12T17:38:55.025Z,95449.22
2022-11-12T17:41:21.829Z,95458.00
2022-11-12T17:43:48.642Z,95463.41
2022-11-12T17:46:15.306Z,95463.50
2022-11-12T17:48:42.018Z,95455.81
2022-11-12T17:51:11.887Z,95448.72
2022-11-12T17:53:39.411Z,95443.41
2022-11-12T17:56:07.604Z,95437.97
2022-11-12T17:58:34.567Z,95439.91
2022-11-12T18:01:14.804Z,95453.25
2022-11-12T18:03:43.774Z,95440.25
2022-11-12T18:06:12.937Z,95446.63
2022-11-12T18:08:40.647Z,95446.97
2022-11-12T18:11:12.068Z,95446.34
2022-11-12T18:13:38.860Z,95452.13
2022-11-12T18:16:34.890Z,95450.97
2022-11-12T18:19:10.902Z,95453.22
2022-11-12T18:21:39.923Z,95460.59
2022-11-12T18:24:08.946Z,95449.00
2022-11-12T18:26:35.655Z,95450.59
2022-11-12T18:29:02.248Z,95454.34
2022-11-12T18:31:29.225Z,95455.00
2022-11-12T18:33:56.180Z,95462.34
2022-11-12T18:36:25.584Z,95467.75
2022-11-12T18:38:53.200Z,95472.78
2022-11-12T18:41:25.656Z,95472.78
2022-11-12T18:43:56.233Z,95469.25
2022-11-12T18:46:23.259Z,95460.78
2022-11-12T18:48:50.057Z,95463.78
2022-11-12T18:51:30.550Z,95453.31
2022-11-12T18:53:57.268Z,95467.28
2022-11-12T18:56:24.168Z,95463.38
2022-11-12T18:58:51.266Z,95461.16
2022-11-12T19:01:21.346Z,95450.16
2022-11-12T19:04:15.263Z,95453.19
2022-11-12T19:07:18.464Z,95438.09
2022-11-12T19:09:45.365Z,95447.78
2022-11-12T19:12:28.761Z,95444.56
2022-11-12T19:14:59.493Z,95444.03
2022-11-12T19:17:37.290Z,95445.44
2022-11-12T19:20:04.412Z,95439.09
2022-11-12T19:22:31.453Z,95444.63
2022-11-12T19:24:58.018Z,95432.06
2022-11-12T19:27:24.606Z,95434.09
2022-11-12T19:29:51.219Z,95433.03
2022-11-12T19:32:17.898Z,95443.66
2022-11-12T19:34:44.540Z,95449.44
2022-11-12T19:37:32.473Z,95464.44
2022-11-12T19:39:57.739Z,95456.22
2022-11-12T19:42:24.373Z,95464.53
2022-11-12T19:44:51.062Z,95466.97
2022-11-12T19:47:17.703Z,95474.66
2022-11-12T19:49:44.342Z,95478.94
2022-11-12T19:52:10.984Z,95483.84
2022-11-12T19:54:37.636Z,95487.59
2022-11-12T19:57:04.363Z,95479.44
2022-11-12T19:59:30.922Z,95485.25
2022-11-12T20:01:57.569Z,95501.91
2022-11-12T20:04:24.537Z,95499.84
2022-11-12T20:06:51.249Z,95499.81
2022-11-12T20:09:18.189Z,95495.63
2022-11-12T20:11:44.836Z,95495.72
2022-11-12T20:14:11.691Z,95486.81
2022-11-12T20:16:39.107Z,95498.91
2022-11-12T20:19:06.422Z,95494.13
2022-11-12T20:21:32.994Z,95497.75
2022-11-12T20:24:01.156Z,95501.19
2022-11-12T20:26:27.953Z,95508.59
2022-11-12T20:28:54.637Z,95508.19
2022-11-12T20:31:21.693Z,95506.97
2022-11-12T20:33:50.088Z,95511.06
2022-11-12T20:36:20.689Z,95516.72
2022-11-12T20:38:49.945Z,95510.03
2022-11-12T20:41:18.881Z,95507.00
2022-11-12T20:43:48.272Z,95511.69
2022-11-12T20:46:14.836Z,95513.94
2022-11-12T20:48:43.424Z,95514.13
2022-11-12T20:51:24.122Z,95510.47
2022-11-12T20:53:58.776Z,95510.88
2022-11-12T20:56:28.297Z,95507.09
2022-11-12T20:58:55.008Z,95500.56
2022-11-12T21:01:23.844Z,95504.47
2022-11-12T21:03:50.882Z,95505.69
2022-11-12T21:06:22.145Z,95504.75
2022-11-12T21:08:49.180Z,95502.06
2022-11-12T21:11:17.897Z,95506.50
2022-11-12T21:13:44.603Z,95503.56
2022-11-12T21:16:12.673Z,95502.28
2022-11-12T21:19:00.363Z,95512.25
2022-11-12T21:21:39.264Z,95517.59
2022-11-12T21:24:11.636Z,95519.84
2022-11-12T21:26:42.408Z,95518.09
2022-11-12T21:29:19.189Z,95520.16
2022-11-12T21:31:47.967Z,95524.31
2022-11-12T21:34:22.853Z,95527.13
2022-11-12T21:36:55.077Z,95517.03
2022-11-12T21:39:21.693Z,95524.13
2022-11-12T21:42:02.485Z,95520.50
2022-11-12T21:44:46.712Z,95512.75
2022-11-12T21:47:13.315Z,95517.03
2022-11-12T21:49:45.870Z,95514.19
2022-11-12T21:52:12.986Z,95513.22
2022-11-12T21:54:39.821Z,95515.88
2022-11-12T21:57:06.630Z,95515.84
2022-11-12T21:59:33.427Z,95517.09
2022-11-12T22:02:00.045Z,95513.81
2022-11-12T22:04:26.670Z,95515.78
2022-11-12T22:06:53.283Z,95512.78
2022-11-12T22:09:19.892Z,95518.28
2022-11-12T22:11:46.558Z,95509.00
2022-11-12T22:14:13.132Z,95513.72
2022-11-12T22:16:39.719Z,95505.06
2022-11-12T22:19:06.442Z,95508.53
2022-11-12T22:21:39.493Z,95496.56
2022-11-12T22:24:07.372Z,95500.97
2022-11-12T22:26:34.014Z,95497.97
2022-11-12T22:29:01.540Z,95502.38
2022-11-12T22:31:30.762Z,95497.06
2022-11-12T22:33:59.700Z,95501.25
2022-11-12T22:36:29.219Z,95496.69
2022-11-12T22:38:56.682Z,95498.03
2022-11-12T22:41:25.790Z,95507.59
2022-11-12T22:43:55.642Z,95500.53
2022-11-12T22:46:24.719Z,95499.03
2022-11-12T22:48:52.082Z,95504.91
2022-11-12T22:51:24.161Z,95500.19
2022-11-12T22:53:55.645Z,95500.03
2022-11-12T22:56:23.506Z,95499.25
2022-11-12T22:58:51.312Z,95492.97
2022-11-12T23:01:28.282Z,95494.66
2022-11-12T23:03:57.081Z,95496.81
2022-11-12T23:06:24.846Z,95491.09
2022-11-12T23:08:53.204Z,95494.66
2022-11-12T23:11:20.321Z,95493.44
2022-11-12T23:13:48.147Z,95500.75
2022-11-12T23:16:25.744Z,95502.06
2022-11-12T23:18:57.707Z,95499.09
2022-11-12T23:21:26.906Z,95504.59
2022-11-12T23:23:55.785Z,95496.41
2022-11-12T23:26:25.085Z,95491.56
2022-11-12T23:28:51.776Z,95497.31
2022-11-12T23:31:26.669Z,95495.00
2022-11-12T23:33:57.165Z,95490.97
2022-11-12T23:36:25.550Z,95482.69
2022-11-12T23:38:52.857Z,95480.66
2022-11-12T23:41:22.849Z,95477.06
2022-11-12T23:43:50.208Z,95475.16
2022-11-12T23:46:16.867Z,95464.75
2022-11-12T23:48:43.983Z,95453.63
2022-11-12T23:51:13.382Z,95444.81
2022-11-12T23:53:40.647Z,95439.38
2022-11-12T23:56:09.455Z,95436.66
2022-11-12T23:58:37.628Z,95440.66
